sensor_id;sensor_type;location;lat;lon;timestamp;P1;durP1;ratioP1;P2;durP2;ratioP2
70253;SDS011;57649;42.968;1.608;2022-11-15T08:39:43;7.95;;;5.13;;
70253;SDS011;57649;42.968;1.608;2022-11-15T08:42:09;12.48;;;5.03;;
70253;SDS011;57649;42.968;1.608;2022-11-15T08:44:34;9.18;;;4.65;;
70253;SDS011;57649;42.968;1.608;2022-11-15T08:46:59;6.18;;;4.55;;
70253;SDS011;57649;42.968;1.608;2022-11-15T08:49:25;10.90;;;5.20;;
70253;SDS011;57649;42.968;1.608;2022-11-15T08:51:50;12.15;;;6.15;;
70253;SDS011;57649;42.968;1.608;2022-11-15T08:54:16;9.85;;;5.95;;
70253;SDS011;57649;42.968;1.608;2022-11-15T08:56:44;10.07;;;5.70;;
70253;SDS011;57649;42.968;1.608;2022-11-15T08:59:10;7.65;;;5.40;;
70253;SDS011;57649;42.968;1.608;2022-11-15T09:01:35;10.15;;;5.13;;
70253;SDS011;57649;42.968;1.608;2022-11-15T09:04:00;10.10;;;5.30;;
70253;SDS011;57649;42.968;1.608;2022-11-15T09:06:26;8.52;;;5.07;;
70253;SDS011;57649;42.968;1.608;2022-11-15T09:08:52;7.75;;;4.75;;
70253;SDS011;57649;42.968;1.608;2022-11-15T09:11:17;6.72;;;4.13;;
70253;SDS011;57649;42.968;1.608;2022-11-15T09:13:45;7.70;;;3.90;;
70253;SDS011;57649;42.968;1.608;2022-11-15T09:16:10;6.07;;;3.70;;
70253;SDS011;57649;42.968;1.608;2022-11-15T09:18:37;7.38;;;3.65;;
70253;SDS011;57649;42.968;1.608;2022-11-15T09:21:03;6.13;;;3.65;;
70253;SDS011;57649;42.968;1.608;2022-11-15T09:23:29;9.90;;;3.55;;
70253;SDS011;57649;42.968;1.608;2022-11-15T09:26:01;6.07;;;3.70;;
70253;SDS011;57649;42.968;1.608;2022-11-15T09:28:28;5.82;;;3.40;;
70253;SDS011;57649;42.968;1.608;2022-11-15T09:30:56;5.30;;;3.88;;
70253;SDS011;57649;42.968;1.608;2022-11-15T09:33:23;5.78;;;3.40;;
70253;SDS011;57649;42.968;1.608;2022-11-15T09:35:48;9.07;;;5.00;;
70253;SDS011;57649;42.968;1.608;2022-11-15T09:38:14;3.80;;;2.60;;
70253;SDS011;57649;42.968;1.608;2022-11-15T09:40:39;6.55;;;3.33;;
70253;SDS011;57649;42.968;1.608;2022-11-15T09:48:42;7.50;;;3.30;;
70253;SDS011;57649;42.968;1.608;2022-11-15T09:51:33;6.47;;;2.90;;
70253;SDS011;57649;42.968;1.608;2022-11-15T09:56:34;6.22;;;2.80;;
70253;SDS011;57649;42.968;1.608;2022-11-15T10:04:22;5.38;;;2.55;;
70253;SDS011;57649;42.968;1.608;2022-11-15T10:06:53;6.13;;;2.33;;
70253;SDS011;57649;42.968;1.608;2022-11-15T10:09:28;5.70;;;2.85;;
70253;SDS011;57649;42.968;1.608;2022-11-15T10:12:01;6.32;;;2.50;;
70253;SDS011;57649;42.968;1.608;2022-11-15T10:14:27;5.72;;;2.53;;
70253;SDS011;57649;42.968;1.608;2022-11-15T10:24:39;8.63;;;2.80;;
70253;SDS011;57649;42.968;1.608;2022-11-15T10:27:09;7.05;;;2.65;;
70253;SDS011;57649;42.968;1.608;2022-11-15T10:29:40;6.90;;;2.38;;
70253;SDS011;57649;42.968;1.608;2022-11-15T10:32:09;8.98;;;2.63;;
70253;SDS011;57649;42.968;1.608;2022-11-15T10:34:39;8.27;;;3.05;;
70253;SDS011;57649;42.968;1.608;2022-11-15T10:37:04;7.43;;;3.00;;
70253;SDS011;57649;42.968;1.608;2022-11-15T10:39:30;4.35;;;2.30;;
70253;SDS011;57649;42.968;1.608;2022-11-15T10:41:55;5.53;;;2.63;;
70253;SDS011;57649;42.968;1.608;2022-11-15T10:44:31;7.00;;;2.40;;
70253;SDS011;57649;42.968;1.608;2022-11-15T10:49:26;7.63;;;2.85;;
70253;SDS011;57649;42.968;1.608;2022-11-15T10:51:57;3.55;;;2.50;;
70253;SDS011;57649;42.968;1.608;2022-11-15T10:54:42;5.90;;;3.13;;
70253;SDS011;57649;42.968;1.608;2022-11-15T10:57:16;4.55;;;2.92;;
70253;SDS011;57649;42.968;1.608;2022-11-15T11:03:04;6.25;;;2.67;;
70253;SDS011;57649;42.968;1.608;2022-11-15T11:05:37;3.70;;;2.35;;
70253;SDS011;57649;42.968;1.608;2022-11-15T11:10:36;7.57;;;3.90;;
70253;SDS011;57649;42.968;1.608;2022-11-15T11:13:15;3.55;;;2.70;;
70253;SDS011;57649;42.968;1.608;2022-11-15T11:15:48;5.00;;;2.85;;
70253;SDS011;57649;42.968;1.608;2022-11-15T11:18:43;5.18;;;4.53;;
70253;SDS011;57649;42.968;1.608;2022-11-15T11:33:30;5.65;;;2.40;;
70253;SDS011;57649;42.968;1.608;2022-11-15T11:35:30;3.83;;;2.60;;
70253;SDS011;57649;42.968;1.608;2022-11-15T11:43:58;4.85;;;2.50;;
70253;SDS011;57649;42.968;1.608;2022-11-15T11:54:30;6.85;;;4.05;;
70253;SDS011;57649;42.968;1.608;2022-11-15T11:56:58;7.35;;;4.85;;
70253;SDS011;57649;42.968;1.608;2022-11-15T12:00:12;7.78;;;5.18;;
70253;SDS011;57649;42.968;1.608;2022-11-15T12:02:24;10.55;;;6.30;;
70253;SDS011;57649;42.968;1.608;2022-11-15T12:04:57;5.80;;;3.75;;
70253;SDS011;57649;42.968;1.608;2022-11-15T12:07:33;10.00;;;6.38;;
70253;SDS011;57649;42.968;1.608;2022-11-15T12:10:11;8.38;;;4.78;;
70253;SDS011;57649;42.968;1.608;2022-11-15T12:15:18;6.35;;;4.07;;
70253;SDS011;57649;42.968;1.608;2022-11-15T12:17:47;5.53;;;2.75;;
70253;SDS011;57649;42.968;1.608;2022-11-15T12:20:23;5.40;;;3.25;;
70253;SDS011;57649;42.968;1.608;2022-11-15T12:26:06;6.72;;;3.33;;
70253;SDS011;57649;42.968;1.608;2022-11-15T12:28:45;6.18;;;3.50;;
70253;SDS011;57649;42.968;1.608;2022-11-15T12:31:29;9.40;;;5.68;;
70253;SDS011;57649;42.968;1.608;2022-11-15T12:33:56;4.38;;;2.88;;
70253;SDS011;57649;42.968;1.608;2022-11-15T12:38:55;5.13;;;3.17;;
70253;SDS011;57649;42.968;1.608;2022-11-15T12:41:28;5.88;;;3.50;;
70253;SDS011;57649;42.968;1.608;2022-11-15T12:43:58;6.32;;;3.53;;
70253;SDS011;57649;42.968;1.608;2022-11-15T12:49:00;21.90;;;4.30;;
70253;SDS011;57649;42.968;1.608;2022-11-15T13:02:18;7.78;;;3.65;;
70253;SDS011;57649;42.968;1.608;2022-11-15T13:04:43;6.70;;;3.67;;
70253;SDS011;57649;42.968;1.608;2022-11-15T13:07:09;6.63;;;3.20;;
70253;SDS011;57649;42.968;1.608;2022-11-15T13:10:01;7.88;;;3.25;;
70253;SDS011;57649;42.968;1.608;2022-11-15T13:17:38;4.25;;;3.10;;
70253;SDS011;57649;42.968;1.608;2022-11-15T13:28:02;10.07;;;4.18;;
70253;SDS011;57649;42.968;1.608;2022-11-15T13:30:35;4.97;;;2.90;;
70253;SDS011;57649;42.968;1.608;2022-11-15T13:33:09;7.78;;;4.10;;
70253;SDS011;57649;42.968;1.608;2022-11-15T13:35:40;4.03;;;3.15;;
70253;SDS011;57649;42.968;1.608;2022-11-15T13:38:11;7.53;;;3.50;;
70253;SDS011;57649;42.968;1.608;2022-11-15T13:40:50;7.35;;;3.50;;
70253;SDS011;57649;42.968;1.608;2022-11-15T13:48:45;6.68;;;4.05;;
70253;SDS011;57649;42.968;1.608;2022-11-15T13:52:16;4.57;;;3.45;;
70253;SDS011;57649;42.968;1.608;2022-11-15T13:56:57;5.25;;;3.17;;
70253;SDS011;57649;42.968;1.608;2022-11-15T13:59:35;4.25;;;2.80;;
70253;SDS011;57649;42.968;1.608;2022-11-15T14:02:13;6.15;;;3.78;;
70253;SDS011;57649;42.968;1.608;2022-11-15T14:04:46;5.80;;;3.30;;
70253;SDS011;57649;42.968;1.608;2022-11-15T14:07:17;5.18;;;3.60;;
70253;SDS011;57649;42.968;1.608;2022-11-15T14:09:44;5.28;;;3.67;;
70253;SDS011;57649;42.968;1.608;2022-11-15T14:14:52;6.15;;;3.22;;
70253;SDS011;57649;42.968;1.608;2022-11-15T14:17:32;6.43;;;4.90;;
70253;SDS011;57649;42.968;1.608;2022-11-15T14:20:00;7.07;;;3.60;;
70253;SDS011;57649;42.968;1.608;2022-11-15T14:22:29;49.47;;;32.70;;
70253;SDS011;57649;42.968;1.608;2022-11-15T14:25:07;4.55;;;3.42;;
70253;SDS011;57649;42.968;1.608;2022-11-15T14:27:39;5.43;;;3.15;;
70253;SDS011;57649;42.968;1.608;2022-11-15T14:30:06;4.60;;;3.42;;
70253;SDS011;57649;42.968;1.608;2022-11-15T14:32:47;7.05;;;3.55;;
70253;SDS011;57649;42.968;1.608;2022-11-15T14:35:18;5.10;;;3.40;;
70253;SDS011;57649;42.968;1.608;2022-11-15T14:37:46;7.90;;;3.92;;
70253;SDS011;57649;42.968;1.608;2022-11-15T14:40:13;5.25;;;3.63;;
70253;SDS011;57649;42.968;1.608;2022-11-15T14:42:43;6.10;;;3.70;;
70253;SDS011;57649;42.968;1.608;2022-11-15T14:45:20;5.32;;;3.35;;
70253;SDS011;57649;42.968;1.608;2022-11-15T14:47:46;5.53;;;3.17;;
70253;SDS011;57649;42.968;1.608;2022-11-15T14:50:13;5.55;;;3.60;;
70253;SDS011;57649;42.968;1.608;2022-11-15T14:52:40;4.60;;;3.28;;
70253;SDS011;57649;42.968;1.608;2022-11-15T14:55:11;5.57;;;3.78;;
70253;SDS011;57649;42.968;1.608;2022-11-15T14:57:39;5.63;;;3.75;;
70253;SDS011;57649;42.968;1.608;2022-11-15T15:00:04;10.15;;;3.83;;
70253;SDS011;57649;42.968;1.608;2022-11-15T15:02:30;5.60;;;3.42;;
70253;SDS011;57649;42.968;1.608;2022-11-15T15:04:56;4.40;;;3.25;;
70253;SDS011;57649;42.968;1.608;2022-11-15T15:09:51;6.03;;;3.70;;
70253;SDS011;57649;42.968;1.608;2022-11-15T15:12:17;7.32;;;3.58;;
70253;SDS011;57649;42.968;1.608;2022-11-15T15:14:45;4.57;;;3.00;;
70253;SDS011;57649;42.968;1.608;2022-11-15T15:17:11;7.18;;;3.85;;
70253;SDS011;57649;42.968;1.608;2022-11-15T15:19:37;9.50;;;5.20;;
70253;SDS011;57649;42.968;1.608;2022-11-15T15:22:03;10.48;;;6.75;;
70253;SDS011;57649;42.968;1.608;2022-11-15T15:24:29;8.05;;;3.70;;
70253;SDS011;57649;42.968;1.608;2022-11-15T15:26:54;9.73;;;6.32;;
70253;SDS011;57649;42.968;1.608;2022-11-15T15:29:20;5.95;;;3.80;;
70253;SDS011;57649;42.968;1.608;2022-11-15T15:31:45;12.27;;;5.60;;
70253;SDS011;57649;42.968;1.608;2022-11-15T15:34:10;9.13;;;4.68;;
70253;SDS011;57649;42.968;1.608;2022-11-15T15:36:36;5.75;;;4.70;;
70253;SDS011;57649;42.968;1.608;2022-11-15T15:39:01;7.85;;;4.22;;
70253;SDS011;57649;42.968;1.608;2022-11-15T15:41:27;7.53;;;4.30;;
70253;SDS011;57649;42.968;1.608;2022-11-15T15:43:52;7.85;;;4.72;;
70253;SDS011;57649;42.968;1.608;2022-11-15T15:46:18;8.18;;;4.50;;
70253;SDS011;57649;42.968;1.608;2022-11-15T15:48:45;9.68;;;5.05;;
70253;SDS011;57649;42.968;1.608;2022-11-15T15:51:11;13.35;;;9.07;;
70253;SDS011;57649;42.968;1.608;2022-11-15T15:53:37;9.60;;;5.15;;
70253;SDS011;57649;42.968;1.608;2022-11-15T15:56:03;8.00;;;4.38;;
70253;SDS011;57649;42.968;1.608;2022-11-15T15:58:29;7.72;;;4.80;;
70253;SDS011;57649;42.968;1.608;2022-11-15T16:00:56;14.23;;;8.25;;
70253;SDS011;57649;42.968;1.608;2022-11-15T16:03:22;13.88;;;8.55;;
70253;SDS011;57649;42.968;1.608;2022-11-15T16:05:49;12.32;;;7.05;;
70253;SDS011;57649;42.968;1.608;2022-11-15T16:08:24;8.52;;;4.95;;
70253;SDS011;57649;42.968;1.608;2022-11-15T16:10:54;6.65;;;4.97;;
70253;SDS011;57649;42.968;1.608;2022-11-15T16:13:20;7.43;;;5.40;;
70253;SDS011;57649;42.968;1.608;2022-11-15T16:15:45;11.88;;;7.07;;
70253;SDS011;57649;42.968;1.608;2022-11-15T16:18:15;9.60;;;5.03;;
70253;SDS011;57649;42.968;1.608;2022-11-15T16:20:42;10.48;;;6.85;;
70253;SDS011;57649;42.968;1.608;2022-11-15T16:23:16;10.93;;;4.78;;
70253;SDS011;57649;42.968;1.608;2022-11-15T16:25:50;8.23;;;3.70;;
70253;SDS011;57649;42.968;1.608;2022-11-15T16:28:28;7.18;;;4.28;;
70253;SDS011;57649;42.968;1.608;2022-11-15T16:31:00;24.17;;;14.15;;
70253;SDS011;57649;42.968;1.608;2022-11-15T16:33:30;26.88;;;14.55;;
70253;SDS011;57649;42.968;1.608;2022-11-15T16:35:56;23.55;;;12.43;;
70253;SDS011;57649;42.968;1.608;2022-11-15T16:38:21;9.15;;;5.70;;
70253;SDS011;57649;42.968;1.608;2022-11-15T16:40:47;11.27;;;5.65;;
70253;SDS011;57649;42.968;1.608;2022-11-15T16:43:12;41.20;;;21.30;;
70253;SDS011;57649;42.968;1.608;2022-11-15T16:45:38;18.27;;;10.73;;
70253;SDS011;57649;42.968;1.608;2022-11-15T16:48:03;8.57;;;6.13;;
70253;SDS011;57649;42.968;1.608;2022-11-15T16:50:30;13.65;;;5.55;;
70253;SDS011;57649;42.968;1.608;2022-11-15T16:52:59;10.35;;;5.00;;
70253;SDS011;57649;42.968;1.608;2022-11-15T16:55:26;12.43;;;7.28;;
70253;SDS011;57649;42.968;1.608;2022-11-15T16:57:53;7.25;;;4.75;;
70253;SDS011;57649;42.968;1.608;2022-11-15T17:00:19;10.07;;;6.70;;
70253;SDS011;57649;42.968;1.608;2022-11-15T17:02:46;11.40;;;6.80;;
70253;SDS011;57649;42.968;1.608;2022-11-15T17:05:13;9.77;;;6.28;;
70253;SDS011;57649;42.968;1.608;2022-11-15T17:07:40;10.73;;;6.57;;
70253;SDS011;57649;42.968;1.608;2022-11-15T17:10:06;15.32;;;9.27;;
70253;SDS011;57649;42.968;1.608;2022-11-15T17:12:33;13.52;;;8.32;;
70253;SDS011;57649;42.968;1.608;2022-11-15T17:14:59;17.85;;;9.82;;
70253;SDS011;57649;42.968;1.608;2022-11-15T17:17:25;13.82;;;9.68;;
70253;SDS011;57649;42.968;1.608;2022-11-15T17:19:51;16.02;;;9.32;;
70253;SDS011;57649;42.968;1.608;2022-11-15T17:22:17;17.30;;;9.25;;
70253;SDS011;57649;42.968;1.608;2022-11-15T17:24:43;12.43;;;8.30;;
70253;SDS011;57649;42.968;1.608;2022-11-15T17:27:09;14.35;;;6.47;;
70253;SDS011;57649;42.968;1.608;2022-11-15T17:29:34;13.20;;;7.50;;
70253;SDS011;57649;42.968;1.608;2022-11-15T17:32:00;18.23;;;6.93;;
70253;SDS011;57649;42.968;1.608;2022-11-15T17:34:25;11.38;;;6.43;;
70253;SDS011;57649;42.968;1.608;2022-11-15T17:36:50;13.02;;;6.45;;
70253;SDS011;57649;42.968;1.608;2022-11-15T17:39:16;10.70;;;6.53;;
70253;SDS011;57649;42.968;1.608;2022-11-15T17:41:43;12.98;;;6.80;;
70253;SDS011;57649;42.968;1.608;2022-11-15T17:44:09;9.75;;;6.60;;
70253;SDS011;57649;42.968;1.608;2022-11-15T17:46:34;7.55;;;6.15;;
70253;SDS011;57649;42.968;1.608;2022-11-15T17:49:00;9.85;;;7.55;;
70253;SDS011;57649;42.968;1.608;2022-11-15T17:51:25;7.25;;;6.47;;
70253;SDS011;57649;42.968;1.608;2022-11-15T17:53:51;10.80;;;7.63;;
70253;SDS011;57649;42.968;1.608;2022-11-15T17:56:21;9.55;;;7.32;;
70253;SDS011;57649;42.968;1.608;2022-11-15T17:58:52;11.07;;;5.40;;
70253;SDS011;57649;42.968;1.608;2022-11-15T18:03:44;8.13;;;6.72;;
70253;SDS011;57649;42.968;1.608;2022-11-15T18:06:10;9.65;;;6.78;;
70253;SDS011;57649;42.968;1.608;2022-11-15T18:08:36;10.52;;;6.43;;
70253;SDS011;57649;42.968;1.608;2022-11-15T18:13:29;9.35;;;6.32;;
70253;SDS011;57649;42.968;1.608;2022-11-15T18:15:55;9.80;;;6.57;;
70253;SDS011;57649;42.968;1.608;2022-11-15T18:18:26;10.93;;;7.15;;
70253;SDS011;57649;42.968;1.608;2022-11-15T18:20:58;14.30;;;8.38;;
70253;SDS011;57649;42.968;1.608;2022-11-15T18:23:31;12.95;;;7.97;;
70253;SDS011;57649;42.968;1.608;2022-11-15T18:25:57;17.77;;;9.88;;
70253;SDS011;57649;42.968;1.608;2022-11-15T18:28:30;15.80;;;10.02;;
70253;SDS011;57649;42.968;1.608;2022-11-15T18:30:57;17.60;;;8.73;;
70253;SDS011;57649;42.968;1.608;2022-11-15T18:33:23;11.10;;;8.38;;
70253;SDS011;57649;42.968;1.608;2022-11-15T18:35:49;12.20;;;8.13;;
70253;SDS011;57649;42.968;1.608;2022-11-15T18:38:25;14.45;;;7.55;;
70253;SDS011;57649;42.968;1.608;2022-11-15T18:40:54;15.20;;;8.05;;
70253;SDS011;57649;42.968;1.608;2022-11-15T18:43:21;11.85;;;7.55;;
70253;SDS011;57649;42.968;1.608;2022-11-15T18:45:49;14.90;;;8.88;;
70253;SDS011;57649;42.968;1.608;2022-11-15T18:48:14;12.05;;;8.88;;
70253;SDS011;57649;42.968;1.608;2022-11-15T18:50:40;13.60;;;9.07;;
70253;SDS011;57649;42.968;1.608;2022-11-15T18:53:05;14.75;;;10.30;;
70253;SDS011;57649;42.968;1.608;2022-11-15T18:55:31;13.68;;;9.90;;
70253;SDS011;57649;42.968;1.608;2022-11-15T18:57:56;16.95;;;12.25;;
70253;SDS011;57649;42.968;1.608;2022-11-15T19:00:21;20.27;;;11.38;;
70253;SDS011;57649;42.968;1.608;2022-11-15T19:02:47;11.93;;;9.02;;
70253;SDS011;57649;42.968;1.608;2022-11-15T19:05:12;14.52;;;8.77;;
70253;SDS011;57649;42.968;1.608;2022-11-15T19:07:59;10.82;;;6.97;;
70253;SDS011;57649;42.968;1.608;2022-11-15T19:10:25;17.67;;;9.73;;
70253;SDS011;57649;42.968;1.608;2022-11-15T19:12:50;22.83;;;14.20;;
70253;SDS011;57649;42.968;1.608;2022-11-15T19:15:18;15.35;;;10.35;;
70253;SDS011;57649;42.968;1.608;2022-11-15T19:17:44;18.88;;;12.43;;
70253;SDS011;57649;42.968;1.608;2022-11-15T19:20:09;17.08;;;12.10;;
70253;SDS011;57649;42.968;1.608;2022-11-15T19:22:35;16.98;;;11.70;;
70253;SDS011;57649;42.968;1.608;2022-11-15T19:25:00;18.42;;;13.48;;
70253;SDS011;57649;42.968;1.608;2022-11-15T19:27:28;19.77;;;13.63;;
70253;SDS011;57649;42.968;1.608;2022-11-15T19:29:54;23.58;;;13.60;;
70253;SDS011;57649;42.968;1.608;2022-11-15T19:32:19;18.17;;;13.00;;
70253;SDS011;57649;42.968;1.608;2022-11-15T19:34:51;23.23;;;13.45;;
70253;SDS011;57649;42.968;1.608;2022-11-15T19:37:16;10.25;;;6.47;;
70253;SDS011;57649;42.968;1.608;2022-11-15T19:44:57;8.27;;;5.93;;
70253;SDS011;57649;42.968;1.608;2022-11-15T19:47:22;10.73;;;7.07;;
70253;SDS011;57649;42.968;1.608;2022-11-15T19:49:48;13.45;;;7.20;;
70253;SDS011;57649;42.968;1.608;2022-11-15T19:52:13;11.20;;;6.05;;
70253;SDS011;57649;42.968;1.608;2022-11-15T19:54:39;10.55;;;5.97;;
70253;SDS011;57649;42.968;1.608;2022-11-15T19:57:04;12.32;;;5.88;;
70253;SDS011;57649;42.968;1.608;2022-11-15T19:59:32;8.68;;;5.82;;
70253;SDS011;57649;42.968;1.608;2022-11-15T20:01:57;6.45;;;4.95;;
70253;SDS011;57649;42.968;1.608;2022-11-15T20:04:23;7.70;;;5.63;;
70253;SDS011;57649;42.968;1.608;2022-11-15T20:06:48;7.05;;;5.43;;
70253;SDS011;57649;42.968;1.608;2022-11-15T20:09:14;8.60;;;5.45;;
70253;SDS011;57649;42.968;1.608;2022-11-15T20:11:40;8.50;;;5.80;;
70253;SDS011;57649;42.968;1.608;2022-11-15T20:14:10;8.25;;;5.32;;
70253;SDS011;57649;42.968;1.608;2022-11-15T20:16:37;8.25;;;5.72;;
70253;SDS011;57649;42.968;1.608;2022-11-15T20:19:03;9.20;;;6.10;;
70253;SDS011;57649;42.968;1.608;2022-11-15T20:21:29;6.97;;;5.05;;
70253;SDS011;57649;42.968;1.608;2022-11-15T20:23:54;7.15;;;5.50;;
70253;SDS011;57649;42.968;1.608;2022-11-15T20:26:20;6.68;;;5.18;;
70253;SDS011;57649;42.968;1.608;2022-11-15T20:28:46;7.03;;;4.90;;
70253;SDS011;57649;42.968;1.608;2022-11-15T20:31:12;6.55;;;4.60;;
70253;SDS011;57649;42.968;1.608;2022-11-15T20:33:37;7.07;;;4.90;;
70253;SDS011;57649;42.968;1.608;2022-11-15T20:36:06;9.55;;;4.82;;
70253;SDS011;57649;42.968;1.608;2022-11-15T20:38:34;8.90;;;5.28;;
70253;SDS011;57649;42.968;1.608;2022-11-15T20:41:01;8.85;;;5.03;;
70253;SDS011;57649;42.968;1.608;2022-11-15T20:43:26;6.82;;;4.93;;
70253;SDS011;57649;42.968;1.608;2022-11-15T20:45:52;8.85;;;5.00;;
70253;SDS011;57649;42.968;1.608;2022-11-15T20:48:18;7.45;;;5.28;;
70253;SDS011;57649;42.968;1.608;2022-11-15T20:50:44;5.47;;;4.47;;
70253;SDS011;57649;42.968;1.608;2022-11-15T20:53:16;6.78;;;4.60;;
70253;SDS011;57649;42.968;1.608;2022-11-15T20:55:44;6.50;;;4.45;;
70253;SDS011;57649;42.968;1.608;2022-11-15T20:58:11;8.32;;;4.28;;
70253;SDS011;57649;42.968;1.608;2022-11-15T21:00:37;10.30;;;4.78;;
70253;SDS011;57649;42.968;1.608;2022-11-15T21:03:05;7.50;;;4.75;;
70253;SDS011;57649;42.968;1.608;2022-11-15T21:05:32;5.30;;;3.80;;
70253;SDS011;57649;42.968;1.608;2022-11-15T21:07:58;6.15;;;4.55;;
70253;SDS011;57649;42.968;1.608;2022-11-15T21:10:24;5.25;;;3.85;;
70253;SDS011;57649;42.968;1.608;2022-11-15T21:13:07;5.03;;;3.90;;
70253;SDS011;57649;42.968;1.608;2022-11-15T21:15:33;6.82;;;4.20;;
70253;SDS011;57649;42.968;1.608;2022-11-15T21:17:58;8.07;;;3.95;;
70253;SDS011;57649;42.968;1.608;2022-11-15T21:20:23;5.70;;;4.00;;
70253;SDS011;57649;42.968;1.608;2022-11-15T21:22:52;6.43;;;4.32;;
70253;SDS011;57649;42.968;1.608;2022-11-15T21:25:17;6.40;;;4.43;;
70253;SDS011;57649;42.968;1.608;2022-11-15T21:27:43;27.02;;;13.90;;
70253;SDS011;57649;42.968;1.608;2022-11-15T21:30:08;5.72;;;3.17;;
70253;SDS011;57649;42.968;1.608;2022-11-15T21:32:34;4.32;;;2.88;;
70253;SDS011;57649;42.968;1.608;2022-11-15T21:35:01;4.25;;;3.08;;
70253;SDS011;57649;42.968;1.608;2022-11-15T21:37:26;4.50;;;2.75;;
70253;SDS011;57649;42.968;1.608;2022-11-15T21:39:51;4.75;;;2.70;;
70253;SDS011;57649;42.968;1.608;2022-11-15T21:42:17;6.75;;;3.55;;
70253;SDS011;57649;42.968;1.608;2022-11-15T21:44:42;3.15;;;2.38;;
70253;SDS011;57649;42.968;1.608;2022-11-15T21:47:08;21.80;;;7.35;;
70253;SDS011;57649;42.968;1.608;2022-11-15T21:49:33;12.02;;;6.03;;
70253;SDS011;57649;42.968;1.608;2022-11-15T21:51:58;8.45;;;4.35;;
70253;SDS011;57649;42.968;1.608;2022-11-15T21:54:27;3.60;;;2.28;;
70253;SDS011;57649;42.968;1.608;2022-11-15T21:56:52;3.83;;;1.70;;
70253;SDS011;57649;42.968;1.608;2022-11-15T21:59:18;4.13;;;1.70;;
70253;SDS011;57649;42.968;1.608;2022-11-15T22:01:43;5.75;;;2.40;;
70253;SDS011;57649;42.968;1.608;2022-11-15T22:04:27;4.55;;;2.17;;
70253;SDS011;57649;42.968;1.608;2022-11-15T22:06:53;4.18;;;2.28;;
70253;SDS011;57649;42.968;1.608;2022-11-15T22:09:18;7.80;;;3.72;;
70253;SDS011;57649;42.968;1.608;2022-11-15T22:11:44;10.25;;;4.20;;
70253;SDS011;57649;42.968;1.608;2022-11-15T22:14:09;2.50;;;1.50;;
70253;SDS011;57649;42.968;1.608;2022-11-15T22:16:34;3.72;;;2.03;;
70253;SDS011;57649;42.968;1.608;2022-11-15T22:19:01;2.38;;;1.20;;
70253;SDS011;57649;42.968;1.608;2022-11-15T22:21:27;2.92;;;1.50;;
70253;SDS011;57649;42.968;1.608;2022-11-15T22:23:52;2.65;;;1.38;;
70253;SDS011;57649;42.968;1.608;2022-11-15T22:26:18;4.32;;;1.92;;
70253;SDS011;57649;42.968;1.608;2022-11-15T22:28:44;3.03;;;1.00;;
70253;SDS011;57649;42.968;1.608;2022-11-15T22:31:10;2.65;;;0.93;;
70253;SDS011;57649;42.968;1.608;2022-11-15T22:33:36;3.72;;;1.00;;
70253;SDS011;57649;42.968;1.608;2022-11-15T22:36:02;2.38;;;1.00;;
70253;SDS011;57649;42.968;1.608;2022-11-15T22:38:29;2.78;;;0.70;;
70253;SDS011;57649;42.968;1.608;2022-11-15T22:40:55;2.33;;;0.77;;
70253;SDS011;57649;42.968;1.608;2022-11-15T22:43:21;3.03;;;0.85;;
70253;SDS011;57649;42.968;1.608;2022-11-15T22:48:14;2.47;;;0.80;;
70253;SDS011;57649;42.968;1.608;2022-11-15T22:50:41;1.75;;;0.90;;
70253;SDS011;57649;42.968;1.608;2022-11-15T22:53:07;3.60;;;1.00;;
70253;SDS011;57649;42.968;1.608;2022-11-15T22:55:32;2.40;;;1.08;;
70253;SDS011;57649;42.968;1.608;2022-11-15T22:57:57;3.38;;;1.30;;
70253;SDS011;57649;42.968;1.608;2022-11-15T23:00:23;6.35;;;0.90;;
70253;SDS011;57649;42.968;1.608;2022-11-15T23:02:49;4.40;;;1.15;;
70253;SDS011;57649;42.968;1.608;2022-11-15T23:05:15;1.40;;;1.05;;
70253;SDS011;57649;42.968;1.608;2022-11-15T23:07:40;4.45;;;1.00;;
70253;SDS011;57649;42.968;1.608;2022-11-15T23:10:06;5.05;;;1.00;;
70253;SDS011;57649;42.968;1.608;2022-11-15T23:12:50;3.22;;;0.82;;
70253;SDS011;57649;42.968;1.608;2022-11-15T23:15:34;3.35;;;0.88;;
70253;SDS011;57649;42.968;1.608;2022-11-15T23:18:18;5.90;;;1.02;;
70253;SDS011;57649;42.968;1.608;2022-11-15T23:20:44;3.75;;;1.10;;
70253;SDS011;57649;42.968;1.608;2022-11-15T23:23:11;1.98;;;0.90;;
70253;SDS011;57649;42.968;1.608;2022-11-15T23:25:37;3.05;;;0.90;;
70253;SDS011;57649;42.968;1.608;2022-11-15T23:28:03;2.90;;;0.90;;
70253;SDS011;57649;42.968;1.608;2022-11-15T23:30:32;2.13;;;1.00;;
70253;SDS011;57649;42.968;1.608;2022-11-15T23:33:17;3.75;;;1.10;;
70253;SDS011;57649;42.968;1.608;2022-11-15T23:36:01;3.55;;;0.98;;
70253;SDS011;57649;42.968;1.608;2022-11-15T23:38:27;1.85;;;0.70;;
70253;SDS011;57649;42.968;1.608;2022-11-15T23:40:52;1.83;;;0.75;;
70253;SDS011;57649;42.968;1.608;2022-11-15T23:43:22;1.73;;;0.70;;
70253;SDS011;57649;42.968;1.608;2022-11-15T23:45:47;5.00;;;2.00;;
70253;SDS011;57649;42.968;1.608;2022-11-15T23:48:13;3.38;;;0.95;;
70253;SDS011;57649;42.968;1.608;2022-11-15T23:50:38;2.72;;;0.70;;
70253;SDS011;57649;42.968;1.608;2022-11-15T23:53:04;7.43;;;1.67;;
70253;SDS011;57649;42.968;1.608;2022-11-15T23:55:30;4.88;;;2.13;;
70253;SDS011;57649;42.968;1.608;2022-11-15T23:57:55;6.88;;;2.97;;
